AUA49W LOWW-LPPR
Flight info
| Callsign | AUA49W |
|---|---|
| Flight time | 3h 10m |
| Altitude | 34000 |
| Route | SOVIL DCT SITNI DCT BAGSI DCT MATIG DCT SBG DCT TRAUN/N0325F120 L856 KPT/N0442F340 L856 AKABI/N0446F350 L856 TRA DCT LUTIX DCT BENOT DCT NEMOS DCT NINTU DCT MEBAK DCT REPSI DCT LERGA DCT MINSO DCT NARAK DCT AGN DCT PIPOR L866 PPN DCT MIRPO DCT DGO DCT NEA DCT ZMR L155 ADORO DCT INKIT |
| Aircraft | A320/M-SDE3FGHIRWY/LB1 |
Departure
| Time | 2026-05-07 16:28 |
|---|---|
| Airport | Vienna International Airport (LOWW) |
Arrival
| Time | 2026-05-07 19:39 |
|---|---|
| Airport | Francisco de Sá Carneiro Airport (LPPR) |
| Time | Latitude | Longitude | Altitude | Speed | Heading |
|---|---|---|---|---|---|
| 2026-05-07 15:54 | 48.11893 | 16.56767 | 599 ft | 0 kts | 203° |
| 2026-05-07 16:03 | 48.11893 | 16.56768 | 599 ft | 0 kts | 203° |
| 2026-05-07 16:16 | 48.11898 | 16.56771 | 599 ft | 2 kts | 200° |
| 2026-05-07 16:16 | 48.11914 | 16.56780 | 598 ft | 2 kts | 202° |
| 2026-05-07 16:16 | 48.11929 | 16.56789 | 598 ft | 2 kts | 200° |
| 2026-05-07 16:17 | 48.11944 | 16.56797 | 597 ft | 2 kts | 195° |
| 2026-05-07 16:17 | 48.11960 | 16.56802 | 597 ft | 2 kts | 161° |
| 2026-05-07 16:17 | 48.11971 | 16.56791 | 597 ft | 1 kts | 115° |
| 2026-05-07 16:17 | 48.11972 | 16.56788 | 597 ft | 0 kts | 116° |
| 2026-05-07 16:20 | 48.11953 | 16.56845 | 598 ft | 7 kts | 115° |
| 2026-05-07 16:21 | 48.11932 | 16.56909 | 599 ft | 10 kts | 116° |
| 2026-05-07 16:21 | 48.11907 | 16.56986 | 600 ft | 7 kts | 116° |
| 2026-05-07 16:21 | 48.11878 | 16.57073 | 602 ft | 16 kts | 116° |
| 2026-05-07 16:21 | 48.11850 | 16.57224 | 613 ft | 13 kts | 108° |
| 2026-05-07 16:22 | 48.11819 | 16.57335 | 605 ft | 10 kts | 117° |
| 2026-05-07 16:22 | 48.11809 | 16.57433 | 612 ft | 10 kts | 98° |
| 2026-05-07 16:22 | 48.11759 | 16.57490 | 611 ft | 13 kts | 160° |
| 2026-05-07 16:22 | 48.11664 | 16.57532 | 616 ft | 14 kts | 164° |
| 2026-05-07 16:23 | 48.11567 | 16.57573 | 611 ft | 15 kts | 164° |
| 2026-05-07 16:23 | 48.11464 | 16.57617 | 616 ft | 16 kts | 164° |
| 2026-05-07 16:23 | 48.11350 | 16.57664 | 613 ft | 14 kts | 165° |
| 2026-05-07 16:23 | 48.11287 | 16.57687 | 610 ft | 8 kts | 175° |
| 2026-05-07 16:24 | 48.11250 | 16.57671 | 606 ft | 3 kts | 204° |
| 2026-05-07 16:24 | 48.11236 | 16.57662 | 620 ft | 9 kts | 205° |
| 2026-05-07 16:24 | 48.11156 | 16.57605 | 607 ft | 13 kts | 204° |
| 2026-05-07 16:24 | 48.11070 | 16.57645 | 603 ft | 14 kts | 161° |
| 2026-05-07 16:25 | 48.11021 | 16.57627 | 603 ft | 0 kts | 204° |
| 2026-05-07 16:25 | 48.10984 | 16.57602 | 604 ft | 11 kts | 205° |
| 2026-05-07 16:26 | 48.10926 | 16.57536 | 611 ft | 10 kts | 250° |
| 2026-05-07 16:26 | 48.10940 | 16.57452 | 617 ft | 0 kts | 295° |
| 2026-05-07 16:27 | 48.10946 | 16.57434 | 619 ft | 13 kts | 296° |
| 2026-05-07 16:27 | 48.11111 | 16.56931 | 608 ft | 92 kts | 296° |
| 2026-05-07 16:27 | 48.11492 | 16.55760 | 604 ft | 155 kts | 295° |
| 2026-05-07 16:28 | 48.11978 | 16.54140 | 998 ft | 177 kts | 290° |
| 2026-05-07 16:28 | 48.12328 | 16.52410 | 1893 ft | 175 kts | 263° |
| 2026-05-07 16:28 | 48.11960 | 16.50671 | 2187 ft | 185 kts | 226° |
| 2026-05-07 16:28 | 48.10902 | 16.49485 | 2477 ft | 196 kts | 206° |
| 2026-05-07 16:29 | 48.09644 | 16.48577 | 3010 ft | 204 kts | 205° |
| 2026-05-07 16:29 | 48.08374 | 16.47604 | 3757 ft | 205 kts | 208° |
| 2026-05-07 16:29 | 48.07115 | 16.46571 | 4461 ft | 212 kts | 212° |
| 2026-05-07 16:29 | 48.05880 | 16.45177 | 4820 ft | 233 kts | 222° |
| 2026-05-07 16:30 | 48.04654 | 16.43464 | 5160 ft | 252 kts | 224° |
| 2026-05-07 16:30 | 48.03368 | 16.41626 | 5841 ft | 260 kts | 224° |
| 2026-05-07 16:30 | 48.02028 | 16.39775 | 6538 ft | 264 kts | 223° |
| 2026-05-07 16:30 | 48.00655 | 16.37954 | 7321 ft | 266 kts | 222° |
| 2026-05-07 16:31 | 47.99255 | 16.36130 | 8058 ft | 269 kts | 221° |
| 2026-05-07 16:31 | 47.97854 | 16.34260 | 8777 ft | 272 kts | 227° |
| 2026-05-07 16:31 | 47.96806 | 16.31899 | 9496 ft | 276 kts | 247° |
| 2026-05-07 16:31 | 47.96368 | 16.29112 | 10187 ft | 280 kts | 266° |
| 2026-05-07 16:32 | 47.96549 | 16.26221 | 10665 ft | 293 kts | 278° |
| 2026-05-07 16:32 | 47.96900 | 16.23111 | 10814 ft | 315 kts | 277° |
| 2026-05-07 16:32 | 47.97220 | 16.19787 | 11124 ft | 330 kts | 276° |
| 2026-05-07 16:32 | 47.97529 | 16.16365 | 11698 ft | 335 kts | 276° |
| 2026-05-07 16:33 | 47.97838 | 16.12892 | 12338 ft | 339 kts | 276° |
| 2026-05-07 16:33 | 47.98152 | 16.09389 | 12976 ft | 343 kts | 276° |
| 2026-05-07 16:33 | 47.98473 | 16.05843 | 13604 ft | 346 kts | 276° |
| 2026-05-07 16:33 | 47.98797 | 16.02266 | 14184 ft | 349 kts | 276° |
| 2026-05-07 16:34 | 47.99126 | 15.98658 | 14726 ft | 352 kts | 276° |
| 2026-05-07 16:34 | 47.99459 | 15.95023 | 15307 ft | 354 kts | 275° |
| 2026-05-07 16:34 | 47.99793 | 15.91419 | 15898 ft | 356 kts | 275° |
| 2026-05-07 16:34 | 48.00136 | 15.87738 | 16475 ft | 358 kts | 275° |
| 2026-05-07 16:35 | 48.00477 | 15.84049 | 17040 ft | 360 kts | 275° |
| 2026-05-07 16:35 | 48.00812 | 15.80340 | 17615 ft | 362 kts | 275° |
| 2026-05-07 16:35 | 48.01147 | 15.76602 | 18173 ft | 364 kts | 274° |
| 2026-05-07 16:35 | 48.01484 | 15.72856 | 18673 ft | 366 kts | 274° |
| 2026-05-07 16:36 | 48.01823 | 15.69076 | 19092 ft | 368 kts | 274° |
| 2026-05-07 16:36 | 48.02164 | 15.65277 | 19498 ft | 371 kts | 274° |
| 2026-05-07 16:36 | 48.02503 | 15.61505 | 19960 ft | 372 kts | 274° |
| 2026-05-07 16:36 | 48.02848 | 15.57660 | 20404 ft | 375 kts | 274° |
| 2026-05-07 16:37 | 48.03191 | 15.53791 | 20845 ft | 377 kts | 274° |
| 2026-05-07 16:37 | 48.03532 | 15.49895 | 21288 ft | 379 kts | 273° |
| 2026-05-07 16:37 | 48.03875 | 15.45972 | 21746 ft | 382 kts | 273° |
| 2026-05-07 16:37 | 48.04223 | 15.42033 | 22194 ft | 383 kts | 273° |
| 2026-05-07 16:38 | 48.04571 | 15.38080 | 22611 ft | 385 kts | 271° |
| 2026-05-07 16:38 | 48.04698 | 15.34085 | 23013 ft | 385 kts | 268° |
| 2026-05-07 16:38 | 48.04767 | 15.30078 | 23441 ft | 387 kts | 268° |
| 2026-05-07 16:38 | 48.04831 | 15.26100 | 23816 ft | 389 kts | 267° |
| 2026-05-07 16:39 | 48.04894 | 15.22053 | 24170 ft | 390 kts | 267° |
| 2026-05-07 16:39 | 48.04955 | 15.17993 | 24513 ft | 392 kts | 267° |
| 2026-05-07 16:39 | 48.05017 | 15.13915 | 24841 ft | 394 kts | 267° |
| 2026-05-07 16:39 | 48.05077 | 15.09817 | 25183 ft | 395 kts | 267° |
| 2026-05-07 16:40 | 48.05139 | 15.05701 | 25509 ft | 397 kts | 267° |
| 2026-05-07 16:40 | 48.05200 | 15.01575 | 25835 ft | 398 kts | 267° |
| 2026-05-07 16:40 | 48.05257 | 14.97435 | 26133 ft | 399 kts | 267° |
| 2026-05-07 16:40 | 48.05307 | 14.93330 | 26441 ft | 401 kts | 267° |
| 2026-05-07 16:41 | 48.05356 | 14.89163 | 26763 ft | 402 kts | 267° |
| 2026-05-07 16:41 | 48.05405 | 14.84968 | 27081 ft | 403 kts | 267° |
| 2026-05-07 16:41 | 48.05453 | 14.80777 | 27386 ft | 405 kts | 266° |
| 2026-05-07 16:41 | 48.05494 | 14.76559 | 27698 ft | 406 kts | 266° |
| 2026-05-07 16:42 | 48.05530 | 14.72334 | 27992 ft | 408 kts | 266° |
| 2026-05-07 16:42 | 48.05562 | 14.68085 | 28297 ft | 409 kts | 266° |
| 2026-05-07 16:42 | 48.05591 | 14.63820 | 28596 ft | 411 kts | 266° |
| 2026-05-07 16:42 | 48.05618 | 14.59600 | 28889 ft | 412 kts | 266° |
| 2026-05-07 16:43 | 48.05647 | 14.55320 | 29164 ft | 413 kts | 266° |
| 2026-05-07 16:43 | 48.05674 | 14.51011 | 29445 ft | 415 kts | 266° |
| 2026-05-07 16:43 | 48.05699 | 14.46701 | 29701 ft | 416 kts | 266° |
| 2026-05-07 16:43 | 48.05722 | 14.42364 | 29971 ft | 417 kts | 266° |
| 2026-05-07 16:44 | 48.05742 | 14.38027 | 30197 ft | 418 kts | 266° |
| 2026-05-07 16:44 | 48.05762 | 14.33677 | 30477 ft | 418 kts | 266° |
| 2026-05-07 16:44 | 48.05783 | 14.29342 | 30800 ft | 416 kts | 265° |
| 2026-05-07 16:44 | 48.05805 | 14.25081 | 31128 ft | 415 kts | 265° |
| 2026-05-07 16:45 | 48.05823 | 14.20778 | 31453 ft | 413 kts | 265° |
| 2026-05-07 16:45 | 48.05836 | 14.16496 | 31778 ft | 411 kts | 265° |
| 2026-05-07 16:45 | 48.05846 | 14.12230 | 32090 ft | 410 kts | 265° |
| 2026-05-07 16:45 | 48.05855 | 14.07974 | 32411 ft | 408 kts | 265° |
| 2026-05-07 16:46 | 48.05865 | 14.03745 | 32712 ft | 407 kts | 265° |
| 2026-05-07 16:46 | 48.05876 | 13.99508 | 33010 ft | 406 kts | 265° |
| 2026-05-07 16:46 | 48.05885 | 13.95298 | 33304 ft | 405 kts | 265° |
| 2026-05-07 16:46 | 48.05889 | 13.91140 | 33598 ft | 404 kts | 265° |
| 2026-05-07 16:47 | 48.05892 | 13.86953 | 33879 ft | 404 kts | 265° |
| 2026-05-07 16:47 | 48.05892 | 13.82750 | 34002 ft | 402 kts | 264° |
| 2026-05-07 16:47 | 48.05894 | 13.78588 | 34018 ft | 399 kts | 265° |
| 2026-05-07 16:48 | 48.05896 | 13.70325 | 34015 ft | 397 kts | 264° |
| 2026-05-07 16:48 | 48.05882 | 13.62091 | 34024 ft | 396 kts | 264° |
| 2026-05-07 16:49 | 48.05824 | 13.53932 | 34024 ft | 393 kts | 260° |
| 2026-05-07 16:49 | 48.05170 | 13.45861 | 34025 ft | 391 kts | 258° |
| 2026-05-07 16:50 | 48.04486 | 13.37805 | 34025 ft | 390 kts | 258° |
| 2026-05-07 16:50 | 48.03799 | 13.29755 | 34033 ft | 390 kts | 258° |
| 2026-05-07 16:51 | 48.03112 | 13.21728 | 34028 ft | 389 kts | 258° |
| 2026-05-07 16:51 | 48.02426 | 13.13768 | 34030 ft | 389 kts | 258° |
| 2026-05-07 16:52 | 48.01728 | 13.05781 | 34031 ft | 388 kts | 258° |
| 2026-05-07 16:52 | 48.01020 | 12.97799 | 34032 ft | 387 kts | 258° |
| 2026-05-07 16:53 | 48.00305 | 12.89820 | 34029 ft | 387 kts | 258° |
| 2026-05-07 16:53 | 47.99595 | 12.81939 | 34034 ft | 386 kts | 258° |
| 2026-05-07 16:54 | 47.98879 | 12.74000 | 34036 ft | 386 kts | 258° |
| 2026-05-07 16:54 | 47.98153 | 12.66074 | 34037 ft | 385 kts | 258° |
| 2026-05-07 16:55 | 47.97453 | 12.58525 | 34032 ft | 385 kts | 258° |
| 2026-05-07 16:55 | 47.96718 | 12.50602 | 34036 ft | 385 kts | 258° |
| 2026-05-07 16:56 | 47.95992 | 12.42735 | 34037 ft | 385 kts | 258° |
| 2026-05-07 16:56 | 47.94886 | 12.30869 | 34039 ft | 385 kts | 258° |
| 2026-05-07 16:57 | 47.94136 | 12.22968 | 34034 ft | 385 kts | 258° |
| 2026-05-07 16:57 | 47.93384 | 12.15071 | 34035 ft | 385 kts | 258° |
| 2026-05-07 16:58 | 47.92623 | 12.07231 | 34029 ft | 385 kts | 258° |
| 2026-05-07 16:58 | 47.91849 | 11.99335 | 34021 ft | 385 kts | 257° |
| 2026-05-07 16:59 | 47.91071 | 11.91440 | 34016 ft | 385 kts | 258° |
| 2026-05-07 16:59 | 47.90288 | 11.83544 | 34025 ft | 385 kts | 257° |
| 2026-05-07 17:00 | 47.89634 | 11.76974 | 34021 ft | 386 kts | 257° |
| 2026-05-07 17:00 | 47.88727 | 11.67777 | 34019 ft | 386 kts | 257° |
| 2026-05-07 17:01 | 47.88069 | 11.61146 | 34017 ft | 387 kts | 257° |
| 2026-05-07 17:01 | 47.87271 | 11.53266 | 34019 ft | 388 kts | 257° |
| 2026-05-07 17:02 | 47.86459 | 11.45329 | 34014 ft | 388 kts | 257° |
| 2026-05-07 17:02 | 47.85636 | 11.37372 | 34030 ft | 389 kts | 257° |
| 2026-05-07 17:03 | 47.84814 | 11.29389 | 34033 ft | 391 kts | 257° |
| 2026-05-07 17:03 | 47.83985 | 11.21378 | 34023 ft | 392 kts | 257° |
| 2026-05-07 17:04 | 47.83142 | 11.13369 | 34034 ft | 392 kts | 257° |
| 2026-05-07 17:04 | 47.82386 | 11.06134 | 34034 ft | 392 kts | 257° |
| 2026-05-07 17:05 | 47.81920 | 11.01750 | 34030 ft | 392 kts | 256° |
| 2026-05-07 17:05 | 47.81061 | 10.93768 | 34026 ft | 392 kts | 256° |
| 2026-05-07 17:06 | 47.80201 | 10.85817 | 34024 ft | 392 kts | 256° |
| 2026-05-07 17:06 | 47.79332 | 10.77815 | 34021 ft | 392 kts | 256° |
| 2026-05-07 17:07 | 47.78456 | 10.69804 | 34021 ft | 393 kts | 256° |
| 2026-05-07 17:07 | 47.77574 | 10.61783 | 34022 ft | 393 kts | 256° |
| 2026-05-07 17:08 | 47.76700 | 10.53829 | 34030 ft | 393 kts | 256° |
| 2026-05-07 17:08 | 47.75830 | 10.46032 | 34027 ft | 394 kts | 256° |
| 2026-05-07 17:09 | 47.74916 | 10.37969 | 34036 ft | 395 kts | 256° |
| 2026-05-07 17:09 | 47.74468 | 10.29800 | 34024 ft | 399 kts | 263° |
| 2026-05-07 17:10 | 47.74294 | 10.21547 | 34025 ft | 399 kts | 263° |
| 2026-05-07 17:10 | 47.74105 | 10.13355 | 34021 ft | 400 kts | 263° |
| 2026-05-07 17:11 | 47.73895 | 10.05091 | 34024 ft | 400 kts | 263° |
| 2026-05-07 17:11 | 47.73686 | 9.96849 | 34023 ft | 401 kts | 263° |
| 2026-05-07 17:12 | 47.73487 | 9.88577 | 34025 ft | 401 kts | 263° |
| 2026-05-07 17:12 | 47.73280 | 9.80284 | 34023 ft | 402 kts | 263° |
| 2026-05-07 17:13 | 47.73057 | 9.72052 | 34023 ft | 402 kts | 263° |
| 2026-05-07 17:13 | 47.72824 | 9.63738 | 34019 ft | 403 kts | 263° |
| 2026-05-07 17:14 | 47.72593 | 9.55430 | 34022 ft | 404 kts | 263° |
| 2026-05-07 17:14 | 47.72356 | 9.47125 | 34022 ft | 404 kts | 263° |
| 2026-05-07 17:15 | 47.72111 | 9.38778 | 34024 ft | 405 kts | 264° |
| 2026-05-07 17:15 | 47.71884 | 9.30479 | 34027 ft | 406 kts | 264° |
| 2026-05-07 17:16 | 47.71657 | 9.22103 | 34023 ft | 406 kts | 264° |
| 2026-05-07 17:16 | 47.71408 | 9.13721 | 34026 ft | 406 kts | 264° |
| 2026-05-07 17:17 | 47.71144 | 9.05380 | 34027 ft | 407 kts | 263° |
| 2026-05-07 17:17 | 47.70866 | 8.96988 | 34026 ft | 407 kts | 263° |
| 2026-05-07 17:18 | 47.70577 | 8.88598 | 34028 ft | 407 kts | 263° |
| 2026-05-07 17:18 | 47.70285 | 8.80174 | 34035 ft | 408 kts | 263° |
| 2026-05-07 17:19 | 47.69990 | 8.71784 | 34038 ft | 408 kts | 263° |
| 2026-05-07 17:19 | 47.69691 | 8.63418 | 34039 ft | 409 kts | 263° |
| 2026-05-07 17:20 | 47.69378 | 8.54994 | 34031 ft | 409 kts | 263° |
| 2026-05-07 17:20 | 47.68826 | 8.46614 | 34035 ft | 405 kts | 253° |
| 2026-05-07 17:21 | 47.66655 | 8.38990 | 34107 ft | 406 kts | 239° |
| 2026-05-07 17:21 | 47.63368 | 8.32142 | 34130 ft | 411 kts | 237° |
| 2026-05-07 17:22 | 47.60029 | 8.25269 | 34133 ft | 411 kts | 237° |
| 2026-05-07 17:22 | 47.56681 | 8.18392 | 34130 ft | 411 kts | 237° |
| 2026-05-07 17:23 | 47.53337 | 8.11527 | 34132 ft | 411 kts | 237° |
| 2026-05-07 17:23 | 47.49979 | 8.04662 | 34139 ft | 411 kts | 237° |
| 2026-05-07 17:24 | 47.46657 | 7.97876 | 34141 ft | 411 kts | 237° |
| 2026-05-07 17:24 | 47.43306 | 7.91037 | 34150 ft | 411 kts | 236° |
| 2026-05-07 17:25 | 47.40026 | 7.84377 | 34149 ft | 410 kts | 236° |
| 2026-05-07 17:25 | 47.36664 | 7.77576 | 34149 ft | 410 kts | 236° |
| 2026-05-07 17:26 | 47.33303 | 7.70794 | 34139 ft | 410 kts | 236° |
| 2026-05-07 17:26 | 47.29972 | 7.64077 | 34139 ft | 409 kts | 236° |
| 2026-05-07 17:27 | 47.26615 | 7.57298 | 34130 ft | 409 kts | 236° |
| 2026-05-07 17:27 | 47.23260 | 7.50553 | 34135 ft | 408 kts | 236° |
| 2026-05-07 17:28 | 47.19905 | 7.43839 | 34132 ft | 407 kts | 236° |
| 2026-05-07 17:28 | 47.16547 | 7.37138 | 34136 ft | 407 kts | 236° |
| 2026-05-07 17:29 | 47.13105 | 7.30589 | 34138 ft | 407 kts | 234° |
| 2026-05-07 17:29 | 47.09546 | 7.24135 | 34140 ft | 407 kts | 233° |
| 2026-05-07 17:30 | 47.05985 | 7.17695 | 34145 ft | 406 kts | 234° |
| 2026-05-07 17:30 | 47.02458 | 7.11232 | 34161 ft | 406 kts | 234° |
| 2026-05-07 17:31 | 46.98961 | 7.04818 | 34158 ft | 405 kts | 234° |
| 2026-05-07 17:31 | 46.95442 | 6.98381 | 34166 ft | 405 kts | 234° |
| 2026-05-07 17:32 | 46.91902 | 6.91937 | 34162 ft | 404 kts | 234° |
| 2026-05-07 17:32 | 46.88390 | 6.85572 | 34164 ft | 404 kts | 234° |
| 2026-05-07 17:33 | 46.84861 | 6.79202 | 34158 ft | 403 kts | 233° |
| 2026-05-07 17:33 | 46.81362 | 6.72883 | 34167 ft | 402 kts | 234° |
| 2026-05-07 17:34 | 46.77849 | 6.66541 | 34036 ft | 402 kts | 233° |
| 2026-05-07 17:34 | 46.74333 | 6.60219 | 34026 ft | 401 kts | 233° |
| 2026-05-07 17:35 | 46.70816 | 6.53927 | 34019 ft | 400 kts | 233° |
| 2026-05-07 17:35 | 46.67291 | 6.47638 | 34016 ft | 400 kts | 233° |
| 2026-05-07 17:36 | 46.63801 | 6.41405 | 34011 ft | 400 kts | 233° |
| 2026-05-07 17:36 | 46.60284 | 6.35134 | 34013 ft | 400 kts | 233° |
| 2026-05-07 17:37 | 46.56761 | 6.28883 | 34013 ft | 399 kts | 233° |
| 2026-05-07 17:37 | 46.53239 | 6.22644 | 34009 ft | 399 kts | 233° |
| 2026-05-07 17:38 | 46.49716 | 6.16415 | 34005 ft | 399 kts | 233° |
| 2026-05-07 17:38 | 46.46189 | 6.10193 | 34000 ft | 399 kts | 233° |
| 2026-05-07 17:39 | 46.42680 | 6.04025 | 33992 ft | 399 kts | 233° |
| 2026-05-07 17:39 | 46.39156 | 5.97840 | 33994 ft | 399 kts | 232° |
| 2026-05-07 17:40 | 46.35621 | 5.91647 | 33995 ft | 399 kts | 232° |
| 2026-05-07 17:40 | 46.32081 | 5.85461 | 33989 ft | 399 kts | 232° |
| 2026-05-07 17:41 | 46.28560 | 5.79315 | 33988 ft | 399 kts | 232° |
| 2026-05-07 17:41 | 46.25016 | 5.73147 | 33985 ft | 399 kts | 232° |
| 2026-05-07 17:42 | 46.21453 | 5.66963 | 33988 ft | 400 kts | 232° |
| 2026-05-07 17:42 | 46.17903 | 5.60811 | 33989 ft | 400 kts | 232° |
| 2026-05-07 17:43 | 46.14382 | 5.54591 | 33988 ft | 399 kts | 237° |
| 2026-05-07 17:43 | 46.11263 | 5.48052 | 33984 ft | 399 kts | 237° |
| 2026-05-07 17:44 | 46.08106 | 5.41478 | 33990 ft | 399 kts | 237° |
| 2026-05-07 17:44 | 46.04950 | 5.34929 | 33984 ft | 399 kts | 236° |
| 2026-05-07 17:45 | 46.01789 | 5.28368 | 33982 ft | 399 kts | 237° |
| 2026-05-07 17:45 | 45.98649 | 5.21853 | 33977 ft | 399 kts | 236° |
| 2026-05-07 17:46 | 45.95481 | 5.15318 | 33971 ft | 399 kts | 236° |
| 2026-05-07 17:46 | 45.92301 | 5.08775 | 33965 ft | 399 kts | 236° |
| 2026-05-07 17:47 | 45.89126 | 5.02250 | 33967 ft | 399 kts | 236° |
| 2026-05-07 17:47 | 45.85960 | 4.95755 | 33985 ft | 399 kts | 236° |
| 2026-05-07 17:48 | 45.82773 | 4.89233 | 33992 ft | 400 kts | 236° |
| 2026-05-07 17:48 | 45.79575 | 4.82713 | 33991 ft | 400 kts | 236° |
| 2026-05-07 17:49 | 45.76373 | 4.76200 | 33988 ft | 400 kts | 236° |
| 2026-05-07 17:49 | 45.73186 | 4.69736 | 33991 ft | 400 kts | 236° |
| 2026-05-07 17:50 | 45.69979 | 4.63236 | 33990 ft | 400 kts | 236° |
| 2026-05-07 17:50 | 45.66771 | 4.56732 | 33989 ft | 400 kts | 236° |
| 2026-05-07 17:51 | 45.63558 | 4.50224 | 33992 ft | 400 kts | 235° |
| 2026-05-07 17:51 | 45.60338 | 4.43732 | 33994 ft | 401 kts | 235° |
| 2026-05-07 17:52 | 45.57127 | 4.37296 | 33996 ft | 401 kts | 235° |
| 2026-05-07 17:52 | 45.53888 | 4.30813 | 33998 ft | 401 kts | 235° |
| 2026-05-07 17:53 | 45.50649 | 4.24340 | 33997 ft | 401 kts | 235° |
| 2026-05-07 17:53 | 45.47408 | 4.17874 | 33998 ft | 401 kts | 235° |
| 2026-05-07 17:54 | 45.44192 | 4.11458 | 33993 ft | 401 kts | 235° |
| 2026-05-07 17:54 | 45.40936 | 4.04988 | 33993 ft | 401 kts | 235° |
| 2026-05-07 17:55 | 45.37673 | 3.98540 | 33990 ft | 401 kts | 234° |
| 2026-05-07 17:55 | 45.34408 | 3.92109 | 33988 ft | 401 kts | 234° |
| 2026-05-07 17:56 | 45.31144 | 3.85663 | 33991 ft | 401 kts | 234° |
| 2026-05-07 17:56 | 45.27905 | 3.79281 | 33997 ft | 401 kts | 234° |
| 2026-05-07 17:57 | 45.25181 | 3.73949 | 34004 ft | 401 kts | 234° |
| 2026-05-07 17:57 | 45.21435 | 3.66383 | 34007 ft | 401 kts | 236° |
| 2026-05-07 17:58 | 45.18263 | 3.59883 | 34003 ft | 401 kts | 236° |
| 2026-05-07 17:58 | 45.15100 | 3.53445 | 34002 ft | 401 kts | 235° |
| 2026-05-07 17:59 | 45.11897 | 3.46982 | 33999 ft | 400 kts | 235° |
| 2026-05-07 17:59 | 45.08696 | 3.40539 | 33989 ft | 400 kts | 235° |
| 2026-05-07 18:00 | 45.05501 | 3.34104 | 33986 ft | 400 kts | 235° |
| 2026-05-07 18:00 | 45.02303 | 3.27681 | 33979 ft | 399 kts | 235° |
| 2026-05-07 18:01 | 44.99118 | 3.21315 | 33981 ft | 399 kts | 235° |
| 2026-05-07 18:01 | 44.95911 | 3.14920 | 33978 ft | 399 kts | 235° |
| 2026-05-07 18:02 | 44.91107 | 3.05347 | 33982 ft | 398 kts | 234° |
| 2026-05-07 18:03 | 44.87902 | 2.98987 | 33980 ft | 398 kts | 234° |
| 2026-05-07 18:03 | 44.84710 | 2.92674 | 33978 ft | 398 kts | 235° |
| 2026-05-07 18:04 | 44.81638 | 2.86194 | 33980 ft | 398 kts | 237° |
| 2026-05-07 18:04 | 44.78677 | 2.79620 | 33980 ft | 398 kts | 237° |
| 2026-05-07 18:05 | 44.75697 | 2.73063 | 33972 ft | 398 kts | 237° |
| 2026-05-07 18:05 | 44.72699 | 2.66575 | 33968 ft | 398 kts | 236° |
| 2026-05-07 18:06 | 44.69675 | 2.60065 | 33967 ft | 398 kts | 236° |
| 2026-05-07 18:06 | 44.66639 | 2.53544 | 33965 ft | 398 kts | 236° |
| 2026-05-07 18:07 | 44.63602 | 2.47030 | 33964 ft | 399 kts | 236° |
| 2026-05-07 18:07 | 44.60560 | 2.40521 | 33963 ft | 399 kts | 236° |
| 2026-05-07 18:08 | 44.57806 | 2.34642 | 33963 ft | 399 kts | 236° |
| 2026-05-07 18:08 | 44.54753 | 2.28125 | 33963 ft | 400 kts | 236° |
| 2026-05-07 18:09 | 44.51696 | 2.21605 | 33959 ft | 400 kts | 236° |
| 2026-05-07 18:09 | 44.48632 | 2.15098 | 33958 ft | 400 kts | 236° |
| 2026-05-07 18:10 | 44.45581 | 2.08655 | 33957 ft | 401 kts | 236° |
| 2026-05-07 18:10 | 44.42498 | 2.02147 | 33956 ft | 401 kts | 236° |
| 2026-05-07 18:11 | 44.39410 | 1.95622 | 33954 ft | 402 kts | 236° |
| 2026-05-07 18:11 | 44.36316 | 1.89115 | 33952 ft | 402 kts | 236° |
| 2026-05-07 18:12 | 44.33220 | 1.82614 | 33955 ft | 402 kts | 236° |
| 2026-05-07 18:12 | 44.30143 | 1.76181 | 33958 ft | 403 kts | 235° |
| 2026-05-07 18:13 | 44.27065 | 1.69633 | 33955 ft | 403 kts | 236° |
| 2026-05-07 18:13 | 44.24060 | 1.63030 | 33952 ft | 403 kts | 237° |
| 2026-05-07 18:14 | 44.21043 | 1.56418 | 33956 ft | 404 kts | 236° |
| 2026-05-07 18:14 | 44.18015 | 1.49834 | 33957 ft | 404 kts | 236° |
| 2026-05-07 18:15 | 44.15001 | 1.43317 | 33954 ft | 404 kts | 236° |
| 2026-05-07 18:15 | 44.11950 | 1.36743 | 33955 ft | 404 kts | 236° |
| 2026-05-07 18:16 | 44.08896 | 1.30175 | 33949 ft | 404 kts | 236° |
| 2026-05-07 18:16 | 44.05866 | 1.23664 | 33944 ft | 404 kts | 236° |
| 2026-05-07 18:17 | 44.02810 | 1.17120 | 33945 ft | 404 kts | 236° |
| 2026-05-07 18:17 | 43.99741 | 1.10571 | 33938 ft | 404 kts | 236° |
| 2026-05-07 18:18 | 43.96668 | 1.04029 | 33939 ft | 405 kts | 236° |
| 2026-05-07 18:18 | 43.93595 | 0.97473 | 33929 ft | 405 kts | 236° |
| 2026-05-07 18:19 | 43.90533 | 0.90962 | 33937 ft | 406 kts | 236° |
| 2026-05-07 18:19 | 43.87466 | 0.84397 | 33938 ft | 406 kts | 237° |
| 2026-05-07 18:20 | 43.84571 | 0.77675 | 33933 ft | 407 kts | 238° |
| 2026-05-07 18:20 | 43.81730 | 0.70898 | 33935 ft | 407 kts | 238° |
| 2026-05-07 18:21 | 43.78879 | 0.64199 | 33934 ft | 406 kts | 238° |
| 2026-05-07 18:21 | 43.75979 | 0.57502 | 33933 ft | 406 kts | 237° |
| 2026-05-07 18:22 | 43.73064 | 0.50799 | 33934 ft | 407 kts | 237° |
| 2026-05-07 18:22 | 43.70152 | 0.44101 | 33925 ft | 407 kts | 237° |
| 2026-05-07 18:23 | 43.67232 | 0.37397 | 33934 ft | 407 kts | 237° |
| 2026-05-07 18:23 | 43.64324 | 0.30738 | 33936 ft | 407 kts | 237° |
| 2026-05-07 18:24 | 43.61394 | 0.24043 | 33927 ft | 407 kts | 237° |
| 2026-05-07 18:24 | 43.58456 | 0.17346 | 33929 ft | 407 kts | 237° |
| 2026-05-07 18:25 | 43.55523 | 0.10684 | 33934 ft | 407 kts | 237° |
| 2026-05-07 18:25 | 43.52605 | 0.04062 | 33936 ft | 407 kts | 237° |
| 2026-05-07 18:26 | 43.49663 | -0.02609 | 33932 ft | 407 kts | 237° |
| 2026-05-07 18:26 | 43.46715 | -0.09273 | 33932 ft | 407 kts | 237° |
| 2026-05-07 18:27 | 43.43765 | -0.15915 | 33925 ft | 407 kts | 237° |
| 2026-05-07 18:27 | 43.40834 | -0.22490 | 33920 ft | 407 kts | 237° |
| 2026-05-07 18:28 | 43.37882 | -0.29120 | 33919 ft | 407 kts | 237° |
| 2026-05-07 18:28 | 43.34918 | -0.35753 | 33923 ft | 407 kts | 237° |
| 2026-05-07 18:29 | 43.31942 | -0.42391 | 33920 ft | 407 kts | 237° |
| 2026-05-07 18:29 | 43.28996 | -0.48961 | 33918 ft | 407 kts | 237° |
| 2026-05-07 18:30 | 43.26033 | -0.55547 | 33920 ft | 407 kts | 237° |
| 2026-05-07 18:30 | 43.23058 | -0.62159 | 33922 ft | 407 kts | 237° |
| 2026-05-07 18:31 | 43.20076 | -0.68767 | 33924 ft | 408 kts | 237° |
| 2026-05-07 18:31 | 43.17081 | -0.75364 | 33922 ft | 408 kts | 237° |
| 2026-05-07 18:32 | 43.14103 | -0.81918 | 33929 ft | 408 kts | 237° |
| 2026-05-07 18:32 | 43.11102 | -0.88516 | 33930 ft | 408 kts | 237° |
| 2026-05-07 18:33 | 43.08097 | -0.95108 | 33927 ft | 408 kts | 237° |
| 2026-05-07 18:33 | 43.05091 | -1.01684 | 33931 ft | 408 kts | 238° |
| 2026-05-07 18:34 | 43.02100 | -1.08216 | 33935 ft | 408 kts | 238° |
| 2026-05-07 18:34 | 42.99093 | -1.14782 | 33930 ft | 408 kts | 238° |
| 2026-05-07 18:35 | 42.96075 | -1.21343 | 33928 ft | 408 kts | 238° |
| 2026-05-07 18:35 | 42.93050 | -1.27887 | 33930 ft | 407 kts | 238° |
| 2026-05-07 18:36 | 42.90049 | -1.34383 | 33932 ft | 407 kts | 238° |
| 2026-05-07 18:36 | 42.87024 | -1.40909 | 33930 ft | 407 kts | 238° |
| 2026-05-07 18:37 | 42.84009 | -1.47417 | 33939 ft | 407 kts | 238° |
| 2026-05-07 18:37 | 42.80979 | -1.53930 | 33938 ft | 406 kts | 238° |
| 2026-05-07 18:38 | 42.77970 | -1.60376 | 33941 ft | 406 kts | 238° |
| 2026-05-07 18:38 | 42.74936 | -1.66856 | 33936 ft | 406 kts | 239° |
| 2026-05-07 18:39 | 42.72572 | -1.73767 | 33937 ft | 404 kts | 253° |
| 2026-05-07 18:39 | 42.70951 | -1.81076 | 33935 ft | 404 kts | 253° |
| 2026-05-07 18:40 | 42.69301 | -1.88361 | 33935 ft | 403 kts | 253° |
| 2026-05-07 18:40 | 42.67654 | -1.95580 | 33931 ft | 403 kts | 253° |
| 2026-05-07 18:41 | 42.66004 | -2.02857 | 33932 ft | 402 kts | 253° |
| 2026-05-07 18:41 | 42.64354 | -2.10116 | 33934 ft | 402 kts | 254° |
| 2026-05-07 18:42 | 42.62694 | -2.17360 | 33935 ft | 402 kts | 253° |
| 2026-05-07 18:42 | 42.60974 | -2.24515 | 33935 ft | 401 kts | 253° |
| 2026-05-07 18:43 | 42.59209 | -2.31697 | 33935 ft | 401 kts | 253° |
| 2026-05-07 18:43 | 42.57445 | -2.38873 | 33928 ft | 401 kts | 253° |
| 2026-05-07 18:44 | 42.55700 | -2.46038 | 33927 ft | 400 kts | 253° |
| 2026-05-07 18:44 | 42.53965 | -2.53154 | 33929 ft | 400 kts | 253° |
| 2026-05-07 18:45 | 42.52213 | -2.60290 | 33924 ft | 399 kts | 253° |
| 2026-05-07 18:45 | 42.50454 | -2.67421 | 33921 ft | 398 kts | 253° |
| 2026-05-07 18:46 | 42.48694 | -2.74532 | 33913 ft | 398 kts | 254° |
| 2026-05-07 18:46 | 42.46946 | -2.81584 | 33919 ft | 397 kts | 254° |
| 2026-05-07 18:47 | 42.45135 | -2.88646 | 33916 ft | 398 kts | 249° |
| 2026-05-07 18:47 | 42.42823 | -2.95460 | 33914 ft | 398 kts | 249° |
| 2026-05-07 18:48 | 42.40503 | -3.02269 | 33914 ft | 398 kts | 249° |
| 2026-05-07 18:48 | 42.38201 | -3.09024 | 33915 ft | 398 kts | 249° |
| 2026-05-07 18:49 | 42.35891 | -3.15811 | 33912 ft | 397 kts | 249° |
| 2026-05-07 18:49 | 42.33570 | -3.22590 | 33915 ft | 397 kts | 249° |
| 2026-05-07 18:50 | 42.31251 | -3.29348 | 33918 ft | 396 kts | 249° |
| 2026-05-07 18:50 | 42.28920 | -3.36103 | 33922 ft | 396 kts | 249° |
| 2026-05-07 18:51 | 42.26605 | -3.42791 | 33931 ft | 396 kts | 249° |
| 2026-05-07 18:51 | 42.24274 | -3.49509 | 33936 ft | 395 kts | 249° |
| 2026-05-07 18:52 | 42.21945 | -3.56221 | 33943 ft | 394 kts | 249° |
| 2026-05-07 18:52 | 42.19617 | -3.62912 | 33937 ft | 394 kts | 249° |
| 2026-05-07 18:53 | 42.17307 | -3.69541 | 33933 ft | 393 kts | 249° |
| 2026-05-07 18:53 | 42.14990 | -3.76199 | 33935 ft | 392 kts | 250° |
| 2026-05-07 18:54 | 42.12671 | -3.82836 | 33925 ft | 391 kts | 250° |
| 2026-05-07 18:54 | 42.10349 | -3.89438 | 33918 ft | 390 kts | 250° |
| 2026-05-07 18:55 | 42.08037 | -3.95990 | 33916 ft | 389 kts | 250° |
| 2026-05-07 18:55 | 42.05713 | -4.02575 | 33917 ft | 388 kts | 250° |
| 2026-05-07 18:56 | 42.03392 | -4.09118 | 33914 ft | 388 kts | 250° |
| 2026-05-07 18:56 | 42.01153 | -4.15701 | 33921 ft | 385 kts | 252° |
| 2026-05-07 18:57 | 41.99108 | -4.22279 | 33920 ft | 384 kts | 253° |
| 2026-05-07 18:57 | 41.97062 | -4.28899 | 33916 ft | 383 kts | 253° |
| 2026-05-07 18:58 | 41.94982 | -4.35470 | 33918 ft | 382 kts | 252° |
| 2026-05-07 18:58 | 41.92884 | -4.42033 | 33921 ft | 381 kts | 252° |
| 2026-05-07 18:59 | 41.90800 | -4.48525 | 33916 ft | 381 kts | 252° |
| 2026-05-07 18:59 | 41.88706 | -4.55048 | 33921 ft | 380 kts | 253° |
| 2026-05-07 19:00 | 41.86613 | -4.61575 | 33920 ft | 380 kts | 253° |
| 2026-05-07 19:00 | 41.84517 | -4.68082 | 33923 ft | 379 kts | 253° |
| 2026-05-07 19:01 | 41.82425 | -4.74556 | 33927 ft | 379 kts | 252° |
| 2026-05-07 19:01 | 41.80326 | -4.81026 | 33918 ft | 378 kts | 252° |
| 2026-05-07 19:02 | 41.78238 | -4.87448 | 33918 ft | 378 kts | 252° |
| 2026-05-07 19:02 | 41.76143 | -4.93888 | 33914 ft | 377 kts | 252° |
| 2026-05-07 19:03 | 41.74057 | -5.00296 | 33889 ft | 372 kts | 252° |
| 2026-05-07 19:03 | 41.72001 | -5.06586 | 33916 ft | 366 kts | 252° |
| 2026-05-07 19:04 | 41.69945 | -5.12876 | 33905 ft | 374 kts | 252° |
| 2026-05-07 19:04 | 41.67878 | -5.19182 | 33907 ft | 372 kts | 252° |
| 2026-05-07 19:05 | 41.65817 | -5.25432 | 33905 ft | 367 kts | 251° |
| 2026-05-07 19:05 | 41.63768 | -5.31642 | 33898 ft | 363 kts | 251° |
| 2026-05-07 19:06 | 41.61737 | -5.37773 | 33898 ft | 358 kts | 251° |
| 2026-05-07 19:06 | 41.58726 | -5.46823 | 33898 ft | 353 kts | 251° |
| 2026-05-07 19:07 | 41.56759 | -5.52747 | 33893 ft | 349 kts | 251° |
| 2026-05-07 19:07 | 41.54792 | -5.58655 | 33890 ft | 347 kts | 251° |
| 2026-05-07 19:08 | 41.53085 | -5.64686 | 33893 ft | 339 kts | 261° |
| 2026-05-07 19:08 | 41.52532 | -5.70790 | 33890 ft | 334 kts | 267° |
| 2026-05-07 19:09 | 41.52103 | -5.76900 | 33891 ft | 332 kts | 266° |
| 2026-05-07 19:09 | 41.51662 | -5.83014 | 33888 ft | 330 kts | 266° |
| 2026-05-07 19:10 | 41.51210 | -5.89183 | 33884 ft | 341 kts | 266° |
| 2026-05-07 19:10 | 41.50736 | -5.95630 | 33888 ft | 357 kts | 266° |
| 2026-05-07 19:11 | 41.50240 | -6.02357 | 33886 ft | 370 kts | 266° |
| 2026-05-07 19:11 | 41.49730 | -6.09170 | 33888 ft | 372 kts | 265° |
| 2026-05-07 19:12 | 41.49211 | -6.16049 | 33881 ft | 373 kts | 265° |
| 2026-05-07 19:12 | 41.48692 | -6.22927 | 33883 ft | 373 kts | 265° |
| 2026-05-07 19:13 | 41.47996 | -6.29778 | 33876 ft | 374 kts | 258° |
| 2026-05-07 19:13 | 41.46770 | -6.36525 | 33872 ft | 374 kts | 258° |
| 2026-05-07 19:14 | 41.45556 | -6.43229 | 33865 ft | 375 kts | 258° |
| 2026-05-07 19:14 | 41.44314 | -6.49978 | 33862 ft | 375 kts | 257° |
| 2026-05-07 19:15 | 41.42906 | -6.56673 | 33856 ft | 376 kts | 256° |
| 2026-05-07 19:15 | 41.41424 | -6.63358 | 33860 ft | 378 kts | 255° |
| 2026-05-07 19:16 | 41.39926 | -6.70189 | 33873 ft | 387 kts | 256° |
| 2026-05-07 19:16 | 41.39189 | -6.73575 | 33276 ft | 386 kts | 255° |
| 2026-05-07 19:16 | 41.38447 | -6.76994 | 32189 ft | 384 kts | 255° |
| 2026-05-07 19:17 | 41.37704 | -6.80410 | 31293 ft | 380 kts | 255° |
| 2026-05-07 19:17 | 41.36984 | -6.83714 | 30925 ft | 364 kts | 255° |
| 2026-05-07 19:17 | 41.36294 | -6.86880 | 30511 ft | 349 kts | 255° |
| 2026-05-07 19:17 | 41.35629 | -6.89927 | 30035 ft | 339 kts | 255° |
| 2026-05-07 19:18 | 41.34973 | -6.92923 | 29230 ft | 336 kts | 255° |
| 2026-05-07 19:18 | 41.34315 | -6.95927 | 28101 ft | 341 kts | 255° |
| 2026-05-07 19:18 | 41.33648 | -6.98969 | 27129 ft | 344 kts | 255° |
| 2026-05-07 19:18 | 41.32980 | -7.02021 | 26275 ft | 343 kts | 255° |
| 2026-05-07 19:19 | 41.32316 | -7.05066 | 25482 ft | 342 kts | 254° |
| 2026-05-07 19:19 | 41.31670 | -7.08058 | 24719 ft | 341 kts | 255° |
| 2026-05-07 19:19 | 41.31094 | -7.11113 | 23959 ft | 340 kts | 257° |
| 2026-05-07 19:19 | 41.30594 | -7.14183 | 23173 ft | 339 kts | 258° |
| 2026-05-07 19:20 | 41.30132 | -7.17252 | 22351 ft | 338 kts | 259° |
| 2026-05-07 19:20 | 41.29681 | -7.20307 | 21587 ft | 335 kts | 258° |
| 2026-05-07 19:20 | 41.29225 | -7.23337 | 20855 ft | 333 kts | 258° |
| 2026-05-07 19:20 | 41.28921 | -7.25327 | 20390 ft | 332 kts | 257° |
| 2026-05-07 19:21 | 41.28452 | -7.28325 | 19695 ft | 329 kts | 257° |
| 2026-05-07 19:21 | 41.27985 | -7.31285 | 19042 ft | 327 kts | 257° |
| 2026-05-07 19:21 | 41.27516 | -7.34245 | 18397 ft | 326 kts | 256° |
| 2026-05-07 19:21 | 41.27047 | -7.37178 | 17689 ft | 324 kts | 256° |
| 2026-05-07 19:22 | 41.26423 | -7.41035 | 16780 ft | 318 kts | 256° |
| 2026-05-07 19:22 | 41.25957 | -7.43909 | 16112 ft | 317 kts | 256° |
| 2026-05-07 19:22 | 41.25646 | -7.45836 | 15717 ft | 315 kts | 256° |
| 2026-05-07 19:22 | 41.25194 | -7.48630 | 15129 ft | 312 kts | 256° |
| 2026-05-07 19:23 | 41.24741 | -7.51435 | 14557 ft | 309 kts | 256° |
| 2026-05-07 19:23 | 41.24292 | -7.54207 | 13997 ft | 306 kts | 256° |
| 2026-05-07 19:23 | 41.23846 | -7.56961 | 13420 ft | 303 kts | 255° |
| 2026-05-07 19:23 | 41.23403 | -7.59690 | 12792 ft | 300 kts | 255° |
| 2026-05-07 19:24 | 41.22964 | -7.62384 | 12352 ft | 298 kts | 255° |
| 2026-05-07 19:24 | 41.22525 | -7.65074 | 12097 ft | 298 kts | 255° |
| 2026-05-07 19:24 | 41.22088 | -7.67758 | 11845 ft | 297 kts | 255° |
| 2026-05-07 19:24 | 41.21653 | -7.70441 | 11593 ft | 296 kts | 255° |
| 2026-05-07 19:25 | 41.21220 | -7.73113 | 11341 ft | 295 kts | 255° |
| 2026-05-07 19:25 | 41.20787 | -7.75772 | 11095 ft | 294 kts | 255° |
| 2026-05-07 19:25 | 41.20362 | -7.78385 | 10853 ft | 293 kts | 255° |
| 2026-05-07 19:25 | 41.19932 | -7.81019 | 10607 ft | 292 kts | 255° |
| 2026-05-07 19:26 | 41.19501 | -7.83648 | 10366 ft | 291 kts | 255° |
| 2026-05-07 19:26 | 41.19069 | -7.86264 | 10124 ft | 290 kts | 254° |
| 2026-05-07 19:26 | 41.18637 | -7.88870 | 9887 ft | 288 kts | 254° |
| 2026-05-07 19:26 | 41.18210 | -7.91453 | 9745 ft | 286 kts | 254° |
| 2026-05-07 19:27 | 41.17783 | -7.94031 | 9618 ft | 285 kts | 254° |
| 2026-05-07 19:27 | 41.17358 | -7.96594 | 9487 ft | 284 kts | 254° |
| 2026-05-07 19:27 | 41.16931 | -7.99154 | 9354 ft | 283 kts | 254° |
| 2026-05-07 19:27 | 41.16511 | -8.01672 | 9224 ft | 283 kts | 254° |
| 2026-05-07 19:28 | 41.16089 | -8.04217 | 9097 ft | 282 kts | 255° |
| 2026-05-07 19:28 | 41.15669 | -8.06753 | 8965 ft | 281 kts | 255° |
| 2026-05-07 19:28 | 41.15249 | -8.09288 | 8833 ft | 280 kts | 254° |
| 2026-05-07 19:28 | 41.14829 | -8.11805 | 8708 ft | 280 kts | 254° |
| 2026-05-07 19:29 | 41.14406 | -8.14324 | 8579 ft | 279 kts | 254° |
| 2026-05-07 19:29 | 41.13983 | -8.16839 | 8457 ft | 278 kts | 254° |
| 2026-05-07 19:29 | 41.13561 | -8.19338 | 8325 ft | 278 kts | 254° |
| 2026-05-07 19:29 | 41.13140 | -8.21837 | 8198 ft | 276 kts | 254° |
| 2026-05-07 19:30 | 41.12722 | -8.24319 | 8013 ft | 276 kts | 254° |
| 2026-05-07 19:30 | 41.12314 | -8.26761 | 7789 ft | 274 kts | 254° |
| 2026-05-07 19:30 | 41.11901 | -8.29217 | 7566 ft | 272 kts | 254° |
| 2026-05-07 19:30 | 41.11488 | -8.31662 | 7338 ft | 271 kts | 254° |
| 2026-05-07 19:31 | 41.11075 | -8.34099 | 6849 ft | 270 kts | 254° |
| 2026-05-07 19:31 | 41.10671 | -8.36493 | 6375 ft | 261 kts | 255° |
| 2026-05-07 19:31 | 41.10280 | -8.38797 | 5958 ft | 251 kts | 255° |
| 2026-05-07 19:31 | 41.09907 | -8.41007 | 5580 ft | 240 kts | 256° |
| 2026-05-07 19:32 | 41.09543 | -8.43153 | 5210 ft | 239 kts | 256° |
| 2026-05-07 19:32 | 41.09175 | -8.45315 | 4838 ft | 239 kts | 256° |
| 2026-05-07 19:32 | 41.08814 | -8.47425 | 4453 ft | 238 kts | 256° |
| 2026-05-07 19:32 | 41.08451 | -8.49557 | 4080 ft | 237 kts | 257° |
| 2026-05-07 19:33 | 41.08088 | -8.51683 | 3701 ft | 236 kts | 257° |
| 2026-05-07 19:33 | 41.07732 | -8.53759 | 3521 ft | 223 kts | 257° |
| 2026-05-07 19:33 | 41.07388 | -8.55749 | 3466 ft | 222 kts | 257° |
| 2026-05-07 19:33 | 41.07049 | -8.57724 | 3417 ft | 213 kts | 258° |
| 2026-05-07 19:34 | 41.06730 | -8.59578 | 3349 ft | 202 kts | 258° |
| 2026-05-07 19:34 | 41.06690 | -8.61414 | 3262 ft | 198 kts | 285° |
| 2026-05-07 19:34 | 41.07331 | -8.62948 | 3186 ft | 196 kts | 315° |
| 2026-05-07 19:34 | 41.08494 | -8.63857 | 3076 ft | 197 kts | 345° |
| 2026-05-07 19:35 | 41.09852 | -8.64219 | 2959 ft | 200 kts | 348° |
| 2026-05-07 19:35 | 41.11212 | -8.64573 | 2664 ft | 197 kts | 347° |
| 2026-05-07 19:35 | 41.12521 | -8.64914 | 2409 ft | 187 kts | 348° |
| 2026-05-07 19:35 | 41.13770 | -8.65239 | 2141 ft | 179 kts | 348° |
| 2026-05-07 19:36 | 41.14968 | -8.65552 | 1898 ft | 172 kts | 347° |
| 2026-05-07 19:36 | 41.16111 | -8.65851 | 1674 ft | 163 kts | 347° |
| 2026-05-07 19:36 | 41.17191 | -8.66135 | 1492 ft | 155 kts | 347° |
| 2026-05-07 19:36 | 41.18219 | -8.66405 | 1277 ft | 145 kts | 347° |
| 2026-05-07 19:37 | 41.19180 | -8.66656 | 1091 ft | 141 kts | 347° |
| 2026-05-07 19:37 | 41.20134 | -8.66905 | 904 ft | 140 kts | 348° |
| 2026-05-07 19:37 | 41.21074 | -8.67152 | 721 ft | 138 kts | 348° |
| 2026-05-07 19:37 | 41.22016 | -8.67401 | 535 ft | 138 kts | 349° |
| 2026-05-07 19:38 | 41.22956 | -8.67641 | 374 ft | 137 kts | 348° |
| 2026-05-07 19:38 | 41.23887 | -8.67882 | 238 ft | 134 kts | 348° |
| 2026-05-07 19:38 | 41.24692 | -8.68093 | 203 ft | 101 kts | 348° |
| 2026-05-07 19:38 | 41.25221 | -8.68229 | 182 ft | 55 kts | 348° |
| 2026-05-07 19:39 | 41.25532 | -8.68312 | 174 ft | 22 kts | 351° |
| 2026-05-07 19:39 | 41.25587 | -8.68308 | 173 ft | 2 kts | 59° |
| 2026-05-07 19:39 | 41.25595 | -8.68283 | 174 ft | 14 kts | 70° |
| 2026-05-07 19:39 | 41.25601 | -8.68127 | 173 ft | 16 kts | 126° |
| 2026-05-07 19:40 | 41.25559 | -8.68093 | 173 ft | 0 kts | 166° |
| 2026-05-07 19:40 | 41.25559 | -8.68092 | 173 ft | 1 kts | 166° |
| 2026-05-07 19:40 | 41.25528 | -8.68083 | 173 ft | 6 kts | 168° |
| 2026-05-07 19:40 | 41.25491 | -8.68074 | 173 ft | 4 kts | 169° |
| 2026-05-07 19:41 | 41.25483 | -8.68072 | 173 ft | 0 kts | 169° |
| 2026-05-07 19:43 | 41.25427 | -8.68058 | 174 ft | 9 kts | 169° |
| 2026-05-07 19:43 | 41.25348 | -8.68037 | 176 ft | 16 kts | 168° |
| 2026-05-07 19:43 | 41.25250 | -8.68013 | 178 ft | 13 kts | 169° |
| 2026-05-07 19:44 | 41.25161 | -8.67990 | 181 ft | 12 kts | 169° |
| 2026-05-07 19:44 | 41.25073 | -8.67966 | 187 ft | 15 kts | 168° |
| 2026-05-07 19:44 | 41.24992 | -8.67945 | 198 ft | 10 kts | 169° |
| 2026-05-07 19:44 | 41.24909 | -8.67923 | 196 ft | 12 kts | 168° |
| 2026-05-07 19:45 | 41.24829 | -8.67897 | 196 ft | 12 kts | 157° |
| 2026-05-07 19:45 | 41.24747 | -8.67828 | 207 ft | 13 kts | 158° |
| 2026-05-07 19:45 | 41.24674 | -8.67806 | 204 ft | 11 kts | 169° |
| 2026-05-07 19:45 | 41.24577 | -8.67781 | 205 ft | 13 kts | 167° |
| 2026-05-07 19:46 | 41.24472 | -8.67751 | 209 ft | 19 kts | 169° |
| 2026-05-07 19:46 | 41.24344 | -8.67718 | 210 ft | 18 kts | 168° |
| 2026-05-07 19:46 | 41.24254 | -8.67620 | 213 ft | 16 kts | 131° |
| 2026-05-07 19:46 | 41.24168 | -8.67567 | 217 ft | 12 kts | 168° |
| 2026-05-07 19:47 | 41.24083 | -8.67545 | 219 ft | 19 kts | 169° |
| 2026-05-07 19:47 | 41.23943 | -8.67508 | 224 ft | 19 kts | 168° |
| 2026-05-07 19:47 | 41.23826 | -8.67477 | 226 ft | 16 kts | 170° |
| 2026-05-07 19:47 | 41.23736 | -8.67423 | 225 ft | 13 kts | 130° |
| 2026-05-07 19:48 | 41.23739 | -8.67353 | 228 ft | 0 kts | 50° |
| 2026-05-07 19:48 | 41.23747 | -8.67339 | 227 ft | 8 kts | 49° |
| 2026-05-07 19:48 | 41.23764 | -8.67315 | 230 ft | 0 kts | 48° |
| 2026-05-07 19:48 | 41.23769 | -8.67308 | 231 ft | 0 kts | 45° |
| 2026-05-07 19:49 | 41.23772 | -8.67304 | 231 ft | 0 kts | 45° |